Time;durP1;ratioP1;P1;durP2;ratioP2;P2;SDS_P1;SDS_P2;PMS_P1;PMS_P2;Temp;Humidity;BMP_temperature;BMP_pressure;BME280_temperature;BME280_humidity;BME280_pressure;Samples;Min_cycle;Max_cycle;Signal;HPM_P1;HPM_P2
2022/12/12 00:01:40;;;;;;;4.88;4.00;;;15.40;38.70;;;;;;5087056;27;45162;-71
2022/12/12 00:04:07;;;;;;;5.03;3.92;;;15.40;38.50;;;;;;5086937;27;45278;-71
2022/12/12 00:06:33;;;;;;;5.03;4.18;;;15.50;38.40;;;;;;5086586;27;45311;-71
2022/12/12 00:09:00;;;;;;;4.63;3.85;;;15.50;38.40;;;;;;5086599;28;45271;-71
2022/12/12 00:11:27;;;;;;;6.25;4.20;;;15.60;38.30;;;;;;5086121;27;45250;-71
2022/12/12 00:13:55;;;;;;;5.30;4.00;;;15.60;38.20;;;;;;5086949;27;45212;-72
2022/12/12 00:16:22;;;;;;;5.13;4.13;;;15.60;38.20;;;;;;5089632;27;45383;-72
2022/12/12 00:18:50;;;;;;;5.15;4.05;;;15.70;38.20;;;;;;5090335;27;45322;-71
2022/12/12 00:21:18;;;;;;;5.07;4.32;;;15.70;38.20;;;;;;5090494;27;45168;-71
2022/12/12 00:23:45;;;;;;;6.82;4.45;;;15.70;38.10;;;;;;5090404;27;45402;-71
2022/12/12 00:26:16;;;;;;;7.63;4.60;;;15.70;38.70;;;;;;5089983;27;46319;-71
2022/12/12 00:28:43;;;;;;;4.65;4.03;;;15.70;38.00;;;;;;5089928;27;45232;-71
2022/12/12 00:31:12;;;;;;;4.82;3.92;;;15.70;38.00;;;;;;5090121;27;45229;-71
2022/12/12 00:33:39;;;;;;;5.47;3.92;;;15.60;38.00;;;;;;5089975;27;45548;-71
2022/12/12 00:36:06;;;;;;;4.32;3.90;;;15.60;38.00;;;;;;5089742;27;45177;-72
2022/12/12 00:38:33;;;;;;;5.03;3.65;;;15.60;38.10;;;;;;5089743;27;45265;-71
2022/12/12 00:41:00;;;;;;;5.18;4.10;;;15.50;38.00;;;;;;5089951;27;45390;-71
2022/12/12 00:43:27;;;;;;;6.55;4.63;;;15.50;38.10;;;;;;5089976;27;45481;-71
2022/12/12 00:45:54;;;;;;;6.28;4.45;;;15.40;38.20;;;;;;5089726;27;45755;-71
2022/12/12 00:48:22;;;;;;;5.10;4.20;;;15.30;38.30;;;;;;5069467;27;45829;-72
2022/12/12 00:50:49;;;;;;;4.40;4.00;;;15.30;38.30;;;;;;5088204;28;45192;-72
2022/12/12 00:53:16;;;;;;;5.03;4.10;;;15.40;38.50;;;;;;5089642;27;45287;-71
2022/12/12 00:55:43;;;;;;;5.50;4.18;;;15.30;38.30;;;;;;5088801;28;45294;-71
2022/12/12 00:58:10;;;;;;;4.50;3.92;;;15.30;38.30;;;;;;5089031;27;45169;-71
2022/12/12 01:00:40;;;;;;;4.05;3.58;;;15.40;38.20;;;;;;5089671;27;45286;-71
2022/12/12 01:03:06;;;;;;;5.97;4.00;;;15.40;38.30;;;;;;5089789;27;45517;-71
2022/12/12 01:05:35;;;;;;;6.38;4.60;;;15.40;38.80;;;;;;5089458;27;46570;-71
2022/12/12 01:08:02;;;;;;;4.35;3.95;;;15.50;38.10;;;;;;5089391;27;45184;-71
2022/12/12 01:10:28;;;;;;;4.78;3.92;;;15.50;38.10;;;;;;5089462;27;45251;-71
2022/12/12 01:12:55;;;;;;;5.57;4.20;;;15.50;38.00;;;;;;5089513;27;45298;-71
2022/12/12 01:15:22;;;;;;;6.65;4.15;;;15.60;37.90;;;;;;5089251;27;46485;-71
2022/12/12 01:17:49;;;;;;;4.78;3.63;;;15.60;37.80;;;;;;5089379;27;45387;-71
2022/12/12 01:20:18;;;;;;;4.18;3.45;;;15.60;37.80;;;;;;5089454;27;45201;-71
2022/12/12 01:22:46;;;;;;;5.10;3.78;;;15.70;37.80;;;;;;5089439;27;45327;-71
2022/12/12 01:25:13;;;;;;;4.68;3.72;;;15.70;37.80;;;;;;5088624;27;46439;-71
2022/12/12 01:27:40;;;;;;;5.40;3.67;;;15.70;37.80;;;;;;5088910;27;45293;-72
2022/12/12 01:30:08;;;;;;;4.93;3.42;;;15.70;37.70;;;;;;5089264;27;45224;-71
2022/12/12 01:32:34;;;;;;;4.45;3.80;;;15.70;37.70;;;;;;5089324;27;45188;-71
2022/12/12 01:35:06;;;;;;;4.20;3.38;;;15.70;37.80;;;;;;5088959;27;46594;-71
2022/12/12 01:37:33;;;;;;;4.68;3.53;;;15.60;37.70;;;;;;5089009;27;45330;-71
2022/12/12 01:40:01;;;;;;;3.60;3.28;;;15.60;37.80;;;;;;5089095;27;45280;-71
2022/12/12 01:42:28;;;;;;;5.13;3.70;;;15.60;37.70;;;;;;5088410;27;45475;-71
2022/12/12 01:44:55;;;;;;;5.68;3.50;;;15.50;37.70;;;;;;5088806;27;45379;-71
2022/12/12 01:47:23;;;;;;;3.53;3.22;;;15.50;37.80;;;;;;5077003;27;45307;-71
2022/12/12 01:49:51;;;;;;;4.22;3.13;;;15.40;38.50;;;;;;5079248;28;45198;-71
2022/12/12 01:52:19;;;;;;;4.70;3.38;;;15.30;38.00;;;;;;5089073;27;45306;-71
2022/12/12 01:54:47;;;;;;;3.90;3.17;;;15.30;38.10;;;;;;5088340;27;45222;-71
2022/12/12 01:57:16;;;;;;;4.15;3.15;;;15.30;38.10;;;;;;5088469;27;45206;-71
2022/12/12 01:59:43;;;;;;;3.83;3.17;;;15.30;38.10;;;;;;5088836;27;45278;-71
2022/12/12 02:02:10;;;;;;;3.83;3.08;;;15.30;38.00;;;;;;5088839;27;45286;-71
2022/12/12 02:04:37;;;;;;;3.60;2.78;;;15.30;37.90;;;;;;5088546;27;45200;-71
2022/12/12 02:07:04;;;;;;;2.88;2.35;;;15.30;37.90;;;;;;5088422;27;45342;-71
2022/12/12 02:09:31;;;;;;;2.58;2.38;;;15.40;37.90;;;;;;5088654;27;45280;-71
2022/12/12 02:11:58;;;;;;;3.40;2.40;;;15.40;37.80;;;;;;5088685;27;45353;-71
2022/12/12 02:14:27;;;;;;;3.22;2.55;;;15.40;37.60;;;;;;5088075;27;45614;-71
2022/12/12 02:17:16;;;;;;;3.10;2.45;;;15.50;37.50;;;;;;5088046;27;45267;-71
2022/12/12 02:20:12;;;;;;;4.32;2.78;;;15.50;37.40;;;;;;5088420;27;45314;-71
2022/12/12 02:23:00;;;;;;;3.17;2.75;;;15.50;37.90;;;;;;5088614;27;45534;-71
2022/12/12 02:26:04;;;;;;;2.95;2.42;;;15.60;37.40;;;;;;5088037;27;46407;-71
2022/12/12 02:28:42;;;;;;;2.80;2.25;;;15.60;37.30;;;;;;5088132;27;45259;-71
2022/12/12 02:31:13;;;;;;;3.53;2.17;;;15.60;37.30;;;;;;5088194;27;45224;-71
2022/12/12 02:33:42;;;;;;;3.00;2.22;;;15.60;37.20;;;;;;5088382;27;45478;-71
2022/12/12 02:36:14;;;;;;;3.22;2.60;;;15.60;37.10;;;;;;5088046;27;46801;-71
2022/12/12 02:38:47;;;;;;;3.70;2.60;;;15.60;37.20;;;;;;5086731;27;45256;-72
2022/12/12 02:41:17;;;;;;;2.90;2.40;;;15.60;37.00;;;;;;5088243;27;45338;-72
2022/12/12 02:43:48;;;;;;;3.88;2.25;;;15.60;37.10;;;;;;5088356;27;45454;-71
2022/12/12 02:46:20;;;;;;;2.75;2.17;;;15.60;37.10;;;;;;5085536;27;45241;-71
2022/12/12 02:48:49;;;;;;;3.60;2.28;;;15.50;37.00;;;;;;5068847;28;45307;-71
2022/12/12 02:51:17;;;;;;;3.85;2.58;;;15.50;37.10;;;;;;5088064;27;45291;-71
2022/12/12 02:53:44;;;;;;;2.08;1.88;;;15.40;37.10;;;;;;5087892;27;45453;-71
2022/12/12 02:56:44;;;;;;;3.22;2.45;;;15.40;37.20;;;;;;5087714;27;45285;-71
2022/12/12 02:59:12;;;;;;;2.67;2.03;;;15.30;37.30;;;;;;5087747;27;45307;-71
2022/12/12 03:01:44;;;;;;;2.10;1.90;;;15.30;37.30;;;;;;5087779;27;45130;-71
2022/12/12 03:09:55;;;;;;;2.75;2.40;;;15.20;37.40;;;;;;5087782;28;45247;-71
2022/12/12 03:12:24;;;;;;;4.57;2.58;;;15.30;37.40;;;;;;5087600;27;45302;-71
2022/12/12 03:14:54;;;;;;;4.35;2.45;;;15.30;37.30;;;;;;5087874;27;45215;-71
2022/12/12 03:17:26;;;;;;;3.17;2.47;;;15.30;37.20;;;;;;5087151;27;46655;-71
2022/12/12 03:19:56;;;;;;;3.83;2.40;;;15.30;37.20;;;;;;5087614;27;45234;-71
2022/12/12 03:22:25;;;;;;;2.42;2.10;;;15.40;37.20;;;;;;5087514;27;45295;-71
2022/12/12 03:24:55;;;;;;;2.83;2.30;;;15.40;37.10;;;;;;5087598;27;45388;-71
2022/12/12 03:27:23;;;;;;;3.17;2.40;;;15.40;37.00;;;;;;5087077;27;45433;-71
2022/12/12 03:29:52;;;;;;;2.83;2.25;;;15.40;37.00;;;;;;5087208;27;45437;-71
2022/12/12 03:32:22;;;;;;;3.13;2.60;;;15.50;36.90;;;;;;5087213;27;45226;-71
2022/12/12 03:34:52;;;;;;;3.00;2.50;;;15.50;36.90;;;;;;5087010;27;45417;-71
2022/12/12 03:37:21;;;;;;;3.58;2.55;;;15.50;36.80;;;;;;5086922;27;45370;-72
2022/12/12 03:39:49;;;;;;;3.25;2.60;;;15.50;36.80;;;;;;5087096;27;45293;-71
2022/12/12 03:42:20;;;;;;;4.47;2.58;;;15.50;36.80;;;;;;5087226;27;45299;-71
2022/12/12 03:44:49;;;;;;;3.33;2.40;;;15.60;36.80;;;;;;5087453;27;45367;-71
2022/12/12 03:47:18;;;;;;;3.25;2.47;;;15.60;36.80;;;;;;5075076;27;45390;-71
2022/12/12 03:49:46;;;;;;;3.33;2.78;;;15.60;36.70;;;;;;5075389;28;45239;-71
2022/12/12 03:52:16;;;;;;;3.05;2.72;;;15.60;36.80;;;;;;5087126;27;45397;-72
2022/12/12 03:54:45;;;;;;;3.10;2.70;;;15.60;36.70;;;;;;5086946;27;46462;-71
2022/12/12 03:57:14;;;;;;;3.55;2.78;;;15.60;36.80;;;;;;5086642;27;46408;-71
2022/12/12 03:59:42;;;;;;;3.97;3.03;;;15.50;36.80;;;;;;5086854;27;45311;-71
2022/12/12 04:02:12;;;;;;;3.97;2.90;;;15.50;36.90;;;;;;5086731;27;45268;-71
2022/12/12 04:04:40;;;;;;;3.10;2.80;;;15.50;36.90;;;;;;5087016;27;45376;-71
2022/12/12 04:07:08;;;;;;;3.00;2.55;;;15.40;36.90;;;;;;5086396;27;45785;-71
2022/12/12 04:15:17;;;;;;;3.20;2.90;;;15.30;37.10;;;;;;5087182;28;45319;-72
2022/12/12 04:17:48;;;;;;;4.05;2.85;;;15.20;37.20;;;;;;5086235;27;46411;-72
2022/12/12 04:23:17;;;;;;;3.72;2.50;;;15.20;37.30;;;;;;5086908;28;45285;-72
2022/12/12 04:28:54;;;;;;;3.85;2.67;;;15.30;37.20;;;;;;5083162;28;45737;-71
2022/12/12 04:31:22;;;;;;;3.05;2.53;;;15.30;37.00;;;;;;5085996;27;45383;-71
2022/12/12 04:33:50;;;;;;;4.63;2.63;;;15.30;36.90;;;;;;5086433;28;45246;-71
2022/12/12 04:36:17;;;;;;;3.45;2.90;;;15.30;36.90;;;;;;5086829;27;45226;-71
2022/12/12 04:38:43;;;;;;;3.55;2.72;;;15.40;37.00;;;;;;5086221;27;46898;-71
2022/12/12 04:41:12;;;;;;;3.85;2.85;;;15.40;37.40;;;;;;5086431;27;45399;-71
2022/12/12 04:43:38;;;;;;;3.90;2.97;;;15.50;36.80;;;;;;5086245;27;45215;-71
2022/12/12 04:46:07;;;;;;;3.75;2.60;;;15.50;36.70;;;;;;5085816;27;45390;-71
2022/12/12 04:48:39;;;;;;;3.65;3.10;;;15.50;36.70;;;;;;5065849;28;46491;-71
2022/12/12 04:51:06;;;;;;;3.58;2.95;;;15.50;36.70;;;;;;5065805;28;45190;-71
2022/12/12 04:53:34;;;;;;;3.88;2.83;;;15.60;36.60;;;;;;5065578;28;45363;-71
2022/12/12 04:56:02;;;;;;;3.78;2.63;;;15.60;36.50;;;;;;5066139;28;45419;-71
2022/12/12 04:58:30;;;;;;;3.00;2.58;;;15.60;36.50;;;;;;5065347;28;45269;-71
2022/12/12 05:00:58;;;;;;;3.95;2.90;;;15.60;37.10;;;;;;5066080;28;45135;-71
2022/12/12 05:03:28;;;;;;;4.03;2.85;;;15.50;36.50;;;;;;5069349;28;45357;-71
2022/12/12 05:05:56;;;;;;;2.92;2.50;;;15.50;36.60;;;;;;5069629;28;45178;-71
2022/12/12 05:08:25;;;;;;;2.45;2.20;;;15.50;36.50;;;;;;5068916;28;46385;-71
2022/12/12 05:10:53;;;;;;;4.65;2.83;;;15.50;36.60;;;;;;5069117;28;45296;-71
2022/12/12 05:13:22;;;;;;;4.20;2.65;;;15.40;36.60;;;;;;5069284;28;45196;-71
2022/12/12 05:15:52;;;;;;;3.47;2.70;;;15.40;36.60;;;;;;5069416;28;45261;-71
2022/12/12 05:18:19;;;;;;;3.58;2.55;;;15.30;36.60;;;;;;5068703;28;45659;-71
2022/12/12 05:20:46;;;;;;;2.75;2.40;;;15.30;36.80;;;;;;5068359;28;45302;-71
2022/12/12 05:23:13;;;;;;;4.10;2.80;;;15.20;36.80;;;;;;5069024;28;45450;-71
2022/12/12 05:25:40;;;;;;;3.47;2.60;;;15.20;36.90;;;;;;5069201;28;45284;-71
2022/12/12 05:28:07;;;;;;;3.53;2.58;;;15.20;36.90;;;;;;5068722;28;46427;-71
2022/12/12 05:30:34;;;;;;;3.30;2.88;;;15.20;36.80;;;;;;5068781;28;45296;-71
2022/12/12 05:33:02;;;;;;;3.50;2.90;;;15.20;36.80;;;;;;5068700;28;45347;-71
2022/12/12 05:35:29;;;;;;;3.25;2.25;;;15.20;36.80;;;;;;5068893;28;45319;-71
2022/12/12 05:37:55;;;;;;;2.88;2.40;;;15.20;36.80;;;;;;5068374;28;45481;-71
2022/12/12 05:40:22;;;;;;;3.95;2.33;;;15.30;36.80;;;;;;5068618;28;45470;-71
2022/12/12 05:42:49;;;;;;;3.08;2.58;;;15.30;36.70;;;;;;5068822;28;45189;-71
2022/12/12 05:45:16;;;;;;;3.47;2.75;;;15.30;36.60;;;;;;5068964;28;45221;-71
2022/12/12 05:47:43;;;;;;;3.20;2.47;;;15.30;36.60;;;;;;5082893;28;45557;-71
2022/12/12 05:50:11;;;;;;;2.90;2.22;;;15.30;36.60;;;;;;5088852;27;45363;-71
2022/12/12 05:52:38;;;;;;;3.20;2.60;;;15.30;37.20;;;;;;5088833;27;45299;-71
2022/12/12 05:55:05;;;;;;;3.30;2.85;;;15.40;36.60;;;;;;5089004;27;45253;-72
2022/12/12 05:57:32;;;;;;;2.63;2.42;;;15.40;36.50;;;;;;5088858;27;46415;-71
2022/12/12 05:59:59;;;;;;;2.88;2.58;;;15.40;36.50;;;;;;5088630;27;45355;-71
2022/12/12 06:02:26;;;;;;;3.50;2.78;;;15.50;37.10;;;;;;5088127;27;45306;-71
2022/12/12 06:04:53;;;;;;;2.95;2.25;;;15.50;36.40;;;;;;5088572;27;45239;-72
2022/12/12 06:07:21;;;;;;;3.50;2.70;;;15.50;36.40;;;;;;5088396;27;46360;-71
2022/12/12 06:09:49;;;;;;;4.22;2.80;;;15.50;36.30;;;;;;5088598;27;45284;-71
2022/12/12 06:12:15;;;;;;;4.18;2.63;;;15.50;36.40;;;;;;5088642;27;45276;-71
2022/12/12 06:14:42;;;;;;;2.65;2.42;;;15.50;36.30;;;;;;5088703;27;45374;-71
2022/12/12 06:17:09;;;;;;;3.80;2.85;;;15.50;36.40;;;;;;5088181;27;46414;-71
2022/12/12 06:19:36;;;;;;;2.88;2.42;;;15.50;36.40;;;;;;5088666;27;45197;-71
2022/12/12 06:22:03;;;;;;;2.42;2.22;;;15.40;36.40;;;;;;5088559;27;45187;-71
2022/12/12 06:24:31;;;;;;;2.50;2.10;;;15.40;37.00;;;;;;5088726;27;45290;-71
2022/12/12 06:26:58;;;;;;;2.83;2.05;;;15.40;36.50;;;;;;5088119;27;45300;-71
2022/12/12 06:29:25;;;;;;;3.22;2.40;;;15.30;36.50;;;;;;5088224;27;45252;-71
2022/12/12 06:31:51;;;;;;;2.70;2.30;;;15.20;36.50;;;;;;5088174;27;45178;-71
2022/12/12 06:34:18;;;;;;;2.60;2.28;;;15.20;36.70;;;;;;5088411;27;45531;-71
2022/12/12 06:36:45;;;;;;;2.20;2.00;;;15.10;36.70;;;;;;5087903;27;45379;-71
2022/12/12 06:39:12;;;;;;;3.53;2.50;;;15.10;36.70;;;;;;5087754;27;45305;-71
2022/12/12 06:41:40;;;;;;;2.85;2.53;;;15.10;36.70;;;;;;5087912;27;45236;-71
2022/12/12 06:44:07;;;;;;;3.10;2.38;;;15.20;36.70;;;;;;5088009;27;45225;-71
2022/12/12 06:46:34;;;;;;;2.60;2.40;;;15.20;36.80;;;;;;5081985;27;45372;-71
2022/12/12 06:49:01;;;;;;;2.88;2.35;;;15.20;36.60;;;;;;5070681;28;45297;-71
2022/12/12 06:51:30;;;;;;;3.17;2.22;;;15.30;37.20;;;;;;5088049;27;45329;-71
2022/12/12 06:53:58;;;;;;;2.58;2.13;;;15.30;36.50;;;;;;5087738;27;45208;-72
2022/12/12 06:56:25;;;;;;;3.25;2.50;;;15.40;36.50;;;;;;5087671;27;47484;-71
2022/12/12 06:58:53;;;;;;;2.78;2.20;;;15.40;36.40;;;;;;5087549;27;44759;-71
2022/12/12 07:01:21;;;;;;;2.75;2.25;;;15.40;36.30;;;;;;5087753;27;45204;-71
2022/12/12 07:03:49;;;;;;;4.25;2.65;;;15.50;36.20;;;;;;5087862;27;45181;-71
2022/12/12 07:06:16;;;;;;;3.50;2.28;;;15.50;36.20;;;;;;5087344;27;46610;-71
2022/12/12 07:08:42;;;;;;;3.58;2.50;;;15.50;36.20;;;;;;5087464;27;45331;-71
2022/12/12 07:11:11;;;;;;;2.80;2.50;;;15.50;36.20;;;;;;5087654;27;45271;-71
2022/12/12 07:13:38;;;;;;;3.90;2.80;;;15.50;36.10;;;;;;5087786;27;45482;-71
2022/12/12 07:16:07;;;;;;;3.10;2.80;;;15.50;36.10;;;;;;5087200;27;45725;-71
2022/12/12 07:18:34;;;;;;;2.53;2.33;;;15.50;36.10;;;;;;5087229;27;45308;-71
2022/12/12 07:21:03;;;;;;;2.20;2.00;;;15.50;36.10;;;;;;5087387;27;45265;-71
2022/12/12 07:23:30;;;;;;;3.78;2.80;;;15.50;36.10;;;;;;5086981;27;45275;-71
2022/12/12 07:25:57;;;;;;;3.17;2.72;;;15.50;36.20;;;;;;5087073;27;46419;-71
2022/12/12 07:28:24;;;;;;;2.78;1.92;;;15.50;36.30;;;;;;5087193;27;45425;-71
2022/12/12 07:30:50;;;;;;;2.03;1.85;;;15.40;36.20;;;;;;5086921;28;45277;-71
2022/12/12 07:33:20;;;;;;;2.78;2.53;;;15.40;36.30;;;;;;5086982;27;45157;-71
2022/12/12 07:35:47;;;;;;;2.50;2.30;;;15.30;36.30;;;;;;5087125;28;45324;-71
2022/12/12 07:38:14;;;;;;;3.47;2.67;;;15.30;36.40;;;;;;5087142;27;45418;-71
2022/12/12 07:40:41;;;;;;;3.15;2.50;;;15.20;36.50;;;;;;5087221;27;45228;-71
2022/12/12 07:43:08;;;;;;;3.25;2.30;;;15.20;37.20;;;;;;5087417;27;45403;-71
2022/12/12 07:45:35;;;;;;;3.47;2.58;;;15.20;36.50;;;;;;5086817;27;45296;-71
2022/12/12 07:48:02;;;;;;;4.30;2.50;;;15.20;36.60;;;;;;5069652;27;45271;-71
2022/12/12 07:50:30;;;;;;;2.85;2.40;;;15.10;36.60;;;;;;5082356;28;45339;-71
2022/12/12 07:52:57;;;;;;;3.42;2.70;;;15.20;36.70;;;;;;5087364;27;45323;-71
2022/12/12 07:55:24;;;;;;;2.65;2.30;;;15.20;36.70;;;;;;5087002;27;46674;-71
2022/12/12 07:57:52;;;;;;;3.35;2.30;;;15.20;36.60;;;;;;5086951;27;45483;-71
2022/12/12 08:00:20;;;;;;;3.17;2.40;;;15.20;36.50;;;;;;5086941;27;45320;-71
2022/12/12 08:02:47;;;;;;;3.83;2.65;;;15.20;36.50;;;;;;5086953;27;45186;-71
2022/12/12 08:05:14;;;;;;;3.15;2.40;;;15.30;36.60;;;;;;5086535;27;45481;-71
2022/12/12 08:07:42;;;;;;;3.47;2.50;;;15.30;36.50;;;;;;5086506;27;45278;-71
2022/12/12 08:10:09;;;;;;;2.78;2.25;;;15.30;36.30;;;;;;5086943;27;45264;-71
2022/12/12 08:12:36;;;;;;;3.15;2.63;;;15.40;36.30;;;;;;5086929;27;45244;-71
2022/12/12 08:15:04;;;;;;;2.65;2.45;;;15.40;36.30;;;;;;5089122;27;46895;-70
2022/12/12 08:17:30;;;;;;;3.88;3.05;;;15.40;36.30;;;;;;5089112;27;45254;-71
2022/12/12 08:19:57;;;;;;;3.10;2.50;;;15.40;36.20;;;;;;5087361;27;45269;-71
2022/12/12 08:22:24;;;;;;;3.00;2.58;;;15.40;36.10;;;;;;5086985;27;45403;-71
2022/12/12 08:24:52;;;;;;;2.75;2.55;;;15.40;36.10;;;;;;5086449;28;46409;-71
2022/12/12 08:27:19;;;;;;;3.00;2.70;;;15.40;36.10;;;;;;5086676;27;45191;-71
2022/12/12 08:29:46;;;;;;;3.67;2.58;;;15.40;36.20;;;;;;5086600;27;45295;-71
2022/12/12 08:32:13;;;;;;;3.67;3.10;;;15.40;36.20;;;;;;5087060;27;45398;-71
2022/12/12 08:34:40;;;;;;;3.67;2.83;;;15.40;36.20;;;;;;5085973;27;46758;-71
2022/12/12 08:37:07;;;;;;;3.35;2.58;;;15.40;36.20;;;;;;5089048;27;45402;-71
2022/12/12 08:39:35;;;;;;;3.08;2.65;;;15.40;36.20;;;;;;5090136;27;45205;-70
2022/12/12 08:42:04;;;;;;;3.20;2.90;;;15.40;36.30;;;;;;5090090;27;45430;-71
2022/12/12 08:44:31;;;;;;;3.08;2.53;;;15.30;36.30;;;;;;5089670;27;46860;-71
2022/12/12 08:46:57;;;;;;;3.60;2.58;;;15.30;36.40;;;;;;5089880;27;45324;-71
2022/12/12 08:49:24;;;;;;;4.97;2.80;;;15.30;36.50;;;;;;5083243;27;45191;-71
2022/12/12 08:51:51;;;;;;;3.72;3.13;;;15.20;36.50;;;;;;5069514;28;45372;-71
2022/12/12 08:54:18;;;;;;;3.33;2.47;;;15.20;36.60;;;;;;5068757;28;46733;-70
2022/12/12 08:56:45;;;;;;;3.03;2.55;;;15.20;36.70;;;;;;5069281;28;45255;-71
2022/12/12 08:59:13;;;;;;;3.00;2.38;;;15.20;36.60;;;;;;5068533;28;45242;-71
2022/12/12 09:01:40;;;;;;;3.72;2.63;;;15.20;36.60;;;;;;5068856;28;45286;-71
2022/12/12 09:04:07;;;;;;;2.85;2.33;;;15.20;36.50;;;;;;5070044;28;46418;-71
2022/12/12 09:06:34;;;;;;;3.20;2.60;;;15.20;36.60;;;;;;5069107;28;45291;-72
2022/12/12 09:09:01;;;;;;;2.58;2.33;;;15.20;36.60;;;;;;5069388;28;45282;-71
2022/12/12 09:11:29;;;;;;;3.70;2.65;;;15.30;36.60;;;;;;5069682;28;45415;-71
2022/12/12 09:13:55;;;;;;;3.75;2.47;;;15.30;36.50;;;;;;5068853;28;45490;-71
2022/12/12 09:16:25;;;;;;;3.75;2.80;;;15.30;36.50;;;;;;5068882;28;45320;-71
2022/12/12 09:18:52;;;;;;;4.80;2.75;;;15.40;36.50;;;;;;5068961;28;45290;-71
2022/12/12 09:21:19;;;;;;;2.85;2.55;;;15.40;36.40;;;;;;5070053;28;45369;-71
2022/12/12 09:23:46;;;;;;;3.58;2.50;;;15.40;36.40;;;;;;5069030;28;45397;-71
2022/12/12 09:26:13;;;;;;;3.60;2.78;;;15.40;36.40;;;;;;5068842;28;45294;-71
2022/12/12 09:28:40;;;;;;;3.15;2.85;;;15.40;36.30;;;;;;5068833;28;45246;-70
2022/12/12 09:31:07;;;;;;;3.03;2.67;;;15.40;36.30;;;;;;5069067;28;45189;-71
2022/12/12 09:33:35;;;;;;;3.97;2.72;;;15.40;36.90;;;;;;5068563;28;46425;-71
2022/12/12 09:36:03;;;;;;;3.38;2.67;;;15.40;36.80;;;;;;5068376;28;45367;-72
2022/12/12 09:38:30;;;;;;;3.35;2.70;;;15.40;36.20;;;;;;5068981;28;45299;-71
2022/12/12 09:40:57;;;;;;;3.53;2.63;;;15.40;36.20;;;;;;5069158;28;45400;-72
2022/12/12 09:43:26;;;;;;;2.90;2.50;;;15.40;36.20;;;;;;5067760;28;47344;-71
2022/12/12 09:45:53;;;;;;;3.55;2.67;;;15.40;36.20;;;;;;5068041;28;45284;-71
2022/12/12 09:48:23;;;;;;;2.80;2.45;;;15.40;36.20;;;;;;5088083;27;45361;-71
2022/12/12 09:50:52;;;;;;;2.72;2.47;;;15.40;36.20;;;;;;5070426;27;45412;-71
2022/12/12 09:53:19;;;;;;;3.70;2.78;;;15.40;36.20;;;;;;5068036;28;46601;-71
2022/12/12 09:55:49;;;;;;;4.10;2.45;;;15.30;36.30;;;;;;5068404;28;45280;-71
2022/12/12 09:58:20;;;;;;;3.65;2.08;;;15.30;36.30;;;;;;5068441;28;45285;-71
2022/12/12 10:00:48;;;;;;;3.10;2.53;;;15.30;36.30;;;;;;5068508;28;45403;-71
2022/12/12 10:03:23;;;;;;;2.90;2.35;;;15.30;36.40;;;;;;5068253;28;46638;-72
2022/12/12 10:05:54;;;;;;;4.13;2.42;;;15.40;36.40;;;;;;5068424;28;45314;-71
2022/12/12 10:08:23;;;;;;;2.97;2.65;;;15.40;37.00;;;;;;5068249;28;45271;-71
2022/12/12 10:10:52;;;;;;;2.90;2.60;;;15.30;36.40;;;;;;5068457;28;45493;-72
2022/12/12 10:13:20;;;;;;;2.88;2.38;;;15.40;36.50;;;;;;5067829;28;47306;-72
2022/12/12 10:15:48;;;;;;;4.07;2.60;;;15.40;36.40;;;;;;5068142;28;45241;-72
2022/12/12 10:18:17;;;;;;;2.63;2.22;;;15.40;36.50;;;;;;5067872;28;45399;-72
2022/12/12 10:20:46;;;;;;;3.35;2.78;;;15.40;36.50;;;;;;5068206;28;45291;-72
2022/12/12 10:23:18;;;;;;;2.97;2.38;;;15.40;36.50;;;;;;5067754;28;45531;-71
2022/12/12 10:25:48;;;;;;;3.55;2.50;;;15.40;36.50;;;;;;5067894;28;45329;-71
2022/12/12 10:28:15;;;;;;;3.25;2.63;;;15.40;36.50;;;;;;5067859;28;45274;-72
2022/12/12 10:30:57;;;;;;;3.55;2.50;;;15.40;36.50;;;;;;5068266;28;45300;-71
2022/12/12 10:33:28;;;;;;;2.90;2.25;;;15.40;36.50;;;;;;5067429;28;45726;-72
2022/12/12 10:35:57;;;;;;;4.55;3.00;;;15.40;36.40;;;;;;5067577;28;45246;-72
2022/12/12 10:38:33;;;;;;;3.50;2.80;;;15.40;36.50;;;;;;5067636;28;45369;-72
2022/12/12 10:41:04;;;;;;;2.83;2.30;;;15.40;36.40;;;;;;5068170;28;45347;-71
2022/12/12 10:43:33;;;;;;;3.45;2.88;;;15.40;36.50;;;;;;5067544;28;45486;-71
2022/12/12 10:46:16;;;;;;;3.33;2.42;;;15.40;36.40;;;;;;5067795;28;45473;-72
2022/12/12 10:48:43;;;;;;;3.05;2.70;;;15.40;36.40;;;;;;5087118;28;45270;-72
2022/12/12 10:51:12;;;;;;;2.78;2.53;;;15.40;36.40;;;;;;5067862;28;45242;-71
2022/12/12 10:53:40;;;;;;;3.30;2.83;;;15.40;36.40;;;;;;5066598;28;47483;-71
2022/12/12 10:56:08;;;;;;;4.82;2.85;;;15.40;36.50;;;;;;5066656;28;45256;-71
2022/12/12 10:58:36;;;;;;;5.97;2.90;;;15.40;36.50;;;;;;5066804;28;45450;-72
2022/12/12 11:01:04;;;;;;;12.45;3.40;;;15.40;36.80;;;;;;5067568;28;45486;-75
2022/12/12 11:03:32;;;;;;;19.60;3.40;;;15.50;37.70;;;;;;5068966;28;46684;-76
2022/12/12 11:06:02;;;;;;;3.55;2.78;;;15.60;37.80;;;;;;5069184;28;45226;-74
2022/12/12 11:08:30;;;;;;;5.00;2.55;;;15.70;38.00;;;;;;5068484;28;45311;-74
2022/12/12 11:11:06;;;;;;;10.05;3.22;;;15.70;37.40;;;;;;5067730;28;45409;-78
2022/12/12 11:13:39;;;;;;;7.60;3.47;;;15.70;37.80;;;;;;5067198;28;46871;-75
2022/12/12 11:16:09;;;;;;;5.03;3.58;;;15.70;38.00;;;;;;5067216;28;45324;-74
2022/12/12 11:18:36;;;;;;;4.50;3.47;;;15.80;38.10;;;;;;5067201;28;45322;-74
2022/12/12 11:21:06;;;;;;;4.97;3.80;;;15.80;37.60;;;;;;5067501;28;45223;-72
2022/12/12 11:23:33;;;;;;;4.47;3.70;;;15.70;37.50;;;;;;5066906;28;45250;-73
2022/12/12 11:26:03;;;;;;;5.50;3.53;;;15.70;37.30;;;;;;5067218;28;45241;-72
2022/12/12 11:28:32;;;;;;;4.18;3.17;;;15.70;37.40;;;;;;5067137;28;45300;-74
2022/12/12 11:30:59;;;;;;;5.43;3.13;;;15.80;37.60;;;;;;5067434;28;45483;-72
2022/12/12 11:33:30;;;;;;;4.93;3.92;;;15.80;37.50;;;;;;5066947;28;46923;-71
2022/12/12 11:35:57;;;;;;;9.95;4.20;;;15.80;37.20;;;;;;5066902;28;45132;-73
2022/12/12 11:38:26;;;;;;;5.00;3.80;;;15.70;37.60;;;;;;5067111;28;45298;-72
2022/12/12 11:40:58;;;;;;;5.45;3.90;;;15.70;37.20;;;;;;5067233;28;45455;-74
2022/12/12 11:43:27;;;;;;;9.27;4.03;;;15.60;37.40;;;;;;5066684;28;46601;-74
2022/12/12 11:46:02;;;;;;;5.38;3.42;;;15.60;37.50;;;;;;5066691;28;45447;-71
2022/12/12 11:48:34;;;;;;;4.95;3.90;;;15.50;37.50;;;;;;5066752;28;45406;-71
2022/12/12 11:51:01;;;;;;;7.88;4.18;;;15.50;37.50;;;;;;5087353;28;45328;-73
2022/12/12 11:53:28;;;;;;;5.22;3.70;;;15.40;37.70;;;;;;5086355;27;46718;-71
2022/12/12 11:56:01;;;;;;;10.07;4.53;;;15.40;37.70;;;;;;5086083;27;45416;-75
2022/12/12 11:58:32;;;;;;;5.95;4.20;;;15.30;37.30;;;;;;5086502;27;45307;-71
2022/12/12 12:01:01;;;;;;;7.63;5.65;;;15.30;37.40;;;;;;5086910;27;45273;-71
2022/12/12 12:03:56;;;;;;;9.93;4.70;;;15.30;37.40;;;;;;5085986;27;45541;-72
2022/12/12 12:06:30;;;;;;;5.50;4.10;;;15.40;37.70;;;;;;5083794;28;45466;-72
2022/12/12 12:09:20;;;;;;;7.68;5.60;;;15.60;38.10;;;;;;5084936;28;45513;-74
2022/12/12 12:11:50;;;;;;;7.93;5.43;;;15.80;38.10;;;;;;5090157;27;45421;-71
2022/12/12 12:14:31;;;;;;;10.82;6.28;;;16.00;38.30;;;;;;5089832;27;46372;-72
2022/12/12 12:17:05;;;;;;;6.85;5.07;;;16.20;38.30;;;;;;5089645;27;45335;-71
2022/12/12 12:19:36;;;;;;;5.38;4.40;;;16.30;37.50;;;;;;5085868;27;45533;-70
2022/12/12 12:22:06;;;;;;;8.60;5.65;;;16.30;37.00;;;;;;5085702;27;46016;-72
2022/12/12 12:24:52;;;;;;;10.25;5.30;;;16.30;37.30;;;;;;5089127;27;46876;-77
2022/12/12 12:27:23;;;;;;;6.95;4.60;;;16.30;37.20;;;;;;5084518;27;45334;-74
2022/12/12 12:30:19;;;;;;;7.22;4.63;;;16.40;38.20;;;;;;5099736;27;44712;-73
2022/12/12 12:32:55;;;;;;;12.07;4.47;;;16.40;37.50;;;;;;5097020;27;45528;-74
2022/12/12 12:35:26;;;;;;;8.60;5.18;;;16.50;37.80;;;;;;5099491;27;45234;-74
2022/12/12 12:37:57;;;;;;;6.90;4.93;;;16.50;37.80;;;;;;5090745;27;45290;-73
2022/12/12 12:40:33;;;;;;;6.70;4.68;;;16.50;37.40;;;;;;5098081;27;45276;-76
2022/12/12 12:43:18;;;;;;;7.50;5.10;;;16.60;38.10;;;;;;5107006;27;45181;-74
2022/12/12 12:45:49;;;;;;;8.55;4.57;;;16.60;38.00;;;;;;5076421;27;45447;-74
2022/12/12 12:48:19;;;;;;;6.97;5.10;;;16.60;38.30;;;;;;5089305;27;45341;-73
2022/12/12 12:50:47;;;;;;;10.38;5.05;;;16.60;37.90;;;;;;5088306;27;45275;-72
2022/12/12 12:53:20;;;;;;;13.57;5.57;;;16.60;37.70;;;;;;5089082;27;45484;-73
2022/12/12 12:55:47;;;;;;;12.35;5.40;;;16.60;37.90;;;;;;5088325;27;46547;-74
2022/12/12 12:58:18;;;;;;;7.53;4.10;;;16.50;37.80;;;;;;5087733;27;45259;-72
2022/12/12 13:00:46;;;;;;;10.07;5.43;;;16.60;38.10;;;;;;5086723;28;45201;-75
2022/12/12 13:03:16;;;;;;;6.95;5.00;;;16.50;38.10;;;;;;5089656;27;45327;-73
2022/12/12 13:05:44;;;;;;;10.60;5.35;;;16.50;38.00;;;;;;5086390;27;45324;-73
2022/12/12 13:08:14;;;;;;;13.52;6.22;;;16.40;37.50;;;;;;5095014;27;45515;-75
2022/12/12 13:10:41;;;;;;;10.18;6.45;;;16.40;37.30;;;;;;5089241;27;45650;-74
2022/12/12 13:13:11;;;;;;;14.80;6.45;;;16.40;37.30;;;;;;5087102;27;45447;-75